sensor_id;sensor_type;location;lat;lon;timestamp;pressure;altitude;pressure_sealevel;temperature
58909;BMP280;44690;48.154;17.102;2022-10-16T00:01:06;99865.19;;;12.91
58909;BMP280;44690;48.154;17.102;2022-10-16T00:02:38;99868.75;;;12.84
58909;BMP280;44690;48.154;17.102;2022-10-16T00:04:10;99866.41;;;12.80
58909;BMP280;44690;48.154;17.102;2022-10-16T00:05:42;99870.47;;;12.79
58909;BMP280;44690;48.154;17.102;2022-10-16T00:07:15;99872.28;;;12.77
58909;BMP280;44690;48.154;17.102;2022-10-16T00:08:47;99865.22;;;12.73
58909;BMP280;44690;48.154;17.102;2022-10-16T00:10:19;99873.41;;;12.73
58909;BMP280;44690;48.154;17.102;2022-10-16T00:11:51;99866.53;;;12.73
58909;BMP280;44690;48.154;17.102;2022-10-16T00:13:23;99866.41;;;12.70
58909;BMP280;44690;48.154;17.102;2022-10-16T00:14:54;99868.94;;;12.68
58909;BMP280;44690;48.154;17.102;2022-10-16T00:16:27;99871.38;;;12.64
58909;BMP280;44690;48.154;17.102;2022-10-16T00:17:59;99871.03;;;12.60
58909;BMP280;44690;48.154;17.102;2022-10-16T00:19:32;99874.19;;;12.57
58909;BMP280;44690;48.154;17.102;2022-10-16T00:21:05;99873.75;;;12.51
58909;BMP280;44690;48.154;17.102;2022-10-16T00:22:55;99880.28;;;12.48
58909;BMP280;44690;48.154;17.102;2022-10-16T00:24:29;99869.25;;;12.46
58909;BMP280;44690;48.154;17.102;2022-10-16T00:26:02;99874.53;;;12.43
58909;BMP280;44690;48.154;17.102;2022-10-16T00:27:34;99873.81;;;12.43
58909;BMP280;44690;48.154;17.102;2022-10-16T00:29:07;99881.13;;;12.40
58909;BMP280;44690;48.154;17.102;2022-10-16T00:30:39;99875.69;;;12.40
58909;BMP280;44690;48.154;17.102;2022-10-16T00:32:11;99874.94;;;12.40
58909;BMP280;44690;48.154;17.102;2022-10-16T00:33:43;99875.38;;;12.36
58909;BMP280;44690;48.154;17.102;2022-10-16T00:35:15;99873.91;;;12.35
58909;BMP280;44690;48.154;17.102;2022-10-16T00:36:47;99874.47;;;12.34
58909;BMP280;44690;48.154;17.102;2022-10-16T00:38:19;99879.78;;;12.32
58909;BMP280;44690;48.154;17.102;2022-10-16T00:39:51;99875.47;;;12.29
58909;BMP280;44690;48.154;17.102;2022-10-16T00:41:23;99877.28;;;12.26
58909;BMP280;44690;48.154;17.102;2022-10-16T00:42:55;99882.59;;;12.24
58909;BMP280;44690;48.154;17.102;2022-10-16T00:44:44;99884.44;;;12.22
58909;BMP280;44690;48.154;17.102;2022-10-16T00:46:26;99887.00;;;12.20
58909;BMP280;44690;48.154;17.102;2022-10-16T00:47:59;99881.25;;;12.16
58909;BMP280;44690;48.154;17.102;2022-10-16T00:49:31;99891.94;;;12.13
58909;BMP280;44690;48.154;17.102;2022-10-16T00:51:03;99893.94;;;12.13
58909;BMP280;44690;48.154;17.102;2022-10-16T00:52:36;99894.66;;;12.13
58909;BMP280;44690;48.154;17.102;2022-10-16T00:54:12;99895.22;;;12.12
58909;BMP280;44690;48.154;17.102;2022-10-16T00:55:45;99901.81;;;12.09
58909;BMP280;44690;48.154;17.102;2022-10-16T00:57:17;99900.38;;;12.08
58909;BMP280;44690;48.154;17.102;2022-10-16T00:58:49;99892.31;;;12.10
58909;BMP280;44690;48.154;17.102;2022-10-16T01:00:23;99893.78;;;12.11
58909;BMP280;44690;48.154;17.102;2022-10-16T01:01:55;99900.81;;;12.14
58909;BMP280;44690;48.154;17.102;2022-10-16T01:03:29;99900.09;;;12.13
58909;BMP280;44690;48.154;17.102;2022-10-16T01:05:02;99898.66;;;12.12
58909;BMP280;44690;48.154;17.102;2022-10-16T01:08:22;99904.56;;;12.19
58909;BMP280;44690;48.154;17.102;2022-10-16T01:13:29;99905.66;;;12.23
58909;BMP280;44690;48.154;17.102;2022-10-16T01:15:09;99909.81;;;12.24
58909;BMP280;44690;48.154;17.102;2022-10-16T01:17:45;99909.53;;;12.30
58909;BMP280;44690;48.154;17.102;2022-10-16T01:22:14;99910.41;;;12.32
58909;BMP280;44690;48.154;17.102;2022-10-16T01:28:51;99904.75;;;12.21
58909;BMP280;44690;48.154;17.102;2022-10-16T01:30:27;99894.25;;;12.17
58909;BMP280;44690;48.154;17.102;2022-10-16T01:32:10;99895.69;;;12.18
58909;BMP280;44690;48.154;17.102;2022-10-16T01:33:44;99899.31;;;12.21
58909;BMP280;44690;48.154;17.102;2022-10-16T01:36:53;99901.00;;;12.16
58909;BMP280;44690;48.154;17.102;2022-10-16T01:38:31;99901.38;;;12.12
58909;BMP280;44690;48.154;17.102;2022-10-16T01:40:05;99907.97;;;12.09
58909;BMP280;44690;48.154;17.102;2022-10-16T01:41:40;99901.22;;;12.10
58909;BMP280;44690;48.154;17.102;2022-10-16T01:43:17;99903.97;;;12.10
58909;BMP280;44690;48.154;17.102;2022-10-16T01:44:51;99916.13;;;12.09
58909;BMP280;44690;48.154;17.102;2022-10-16T01:46:24;99907.97;;;12.09
58909;BMP280;44690;48.154;17.102;2022-10-16T01:47:57;99916.13;;;12.09
58909;BMP280;44690;48.154;17.102;2022-10-16T01:49:31;99925.72;;;12.10
58909;BMP280;44690;48.154;17.102;2022-10-16T01:51:05;99929.31;;;12.13
58909;BMP280;44690;48.154;17.102;2022-10-16T01:52:39;99925.16;;;12.12
58909;BMP280;44690;48.154;17.102;2022-10-16T01:54:11;99919.00;;;12.11
58909;BMP280;44690;48.154;17.102;2022-10-16T01:55:45;99919.34;;;12.16
58909;BMP280;44690;48.154;17.102;2022-10-16T01:57:19;99921.63;;;12.19
58909;BMP280;44690;48.154;17.102;2022-10-16T01:59:06;99923.22;;;12.22
58909;BMP280;44690;48.154;17.102;2022-10-16T02:00:39;99925.94;;;12.22
58909;BMP280;44690;48.154;17.102;2022-10-16T02:02:12;99920.50;;;12.22
58909;BMP280;44690;48.154;17.102;2022-10-16T02:03:46;99916.34;;;12.21
58909;BMP280;44690;48.154;17.102;2022-10-16T02:07:04;99917.06;;;12.22
58909;BMP280;44690;48.154;17.102;2022-10-16T02:08:37;99925.94;;;12.22
58909;BMP280;44690;48.154;17.102;2022-10-16T02:10:10;99913.63;;;12.21
58909;BMP280;44690;48.154;17.102;2022-10-16T02:11:43;99921.78;;;12.21
58909;BMP280;44690;48.154;17.102;2022-10-16T02:13:17;99910.00;;;12.19
58909;BMP280;44690;48.154;17.102;2022-10-16T02:14:49;99912.72;;;12.19
58909;BMP280;44690;48.154;17.102;2022-10-16T02:16:23;99905.31;;;12.19
58909;BMP280;44690;48.154;17.102;2022-10-16T02:18:04;99907.28;;;12.19
58909;BMP280;44690;48.154;17.102;2022-10-16T02:19:36;99912.34;;;12.22
58909;BMP280;44690;48.154;17.102;2022-10-16T02:22:43;99915.94;;;12.25
58909;BMP280;44690;48.154;17.102;2022-10-16T02:24:24;99920.44;;;12.30
58909;BMP280;44690;48.154;17.102;2022-10-16T02:25:58;99915.16;;;12.32
58909;BMP280;44690;48.154;17.102;2022-10-16T02:29:20;99913.78;;;12.40
58909;BMP280;44690;48.154;17.102;2022-10-16T02:30:56;99917.38;;;12.43
58909;BMP280;44690;48.154;17.102;2022-10-16T02:32:30;99911.94;;;12.43
58909;BMP280;44690;48.154;17.102;2022-10-16T02:34:02;99903.94;;;12.45
58909;BMP280;44690;48.154;17.102;2022-10-16T02:35:37;99913.50;;;12.46
58909;BMP280;44690;48.154;17.102;2022-10-16T02:37:09;99921.13;;;12.48
58909;BMP280;44690;48.154;17.102;2022-10-16T02:38:42;99910.22;;;12.48
58909;BMP280;44690;48.154;17.102;2022-10-16T02:40:14;99916.56;;;12.50
58909;BMP280;44690;48.154;17.102;2022-10-16T02:41:46;99910.56;;;12.52
58909;BMP280;44690;48.154;17.102;2022-10-16T02:43:18;99923.59;;;12.53
58909;BMP280;44690;48.154;17.102;2022-10-16T02:44:50;99929.19;;;12.55
58909;BMP280;44690;48.154;17.102;2022-10-16T02:46:22;99922.78;;;12.60
58909;BMP280;44690;48.154;17.102;2022-10-16T02:47:54;99931.84;;;12.63
58909;BMP280;44690;48.154;17.102;2022-10-16T02:49:27;99929.25;;;12.65
58909;BMP280;44690;48.154;17.102;2022-10-16T02:50:59;99937.59;;;12.67
58909;BMP280;44690;48.154;17.102;2022-10-16T02:52:31;99931.31;;;12.74
58909;BMP280;44690;48.154;17.102;2022-10-16T02:54:03;99929.47;;;12.77
58909;BMP280;44690;48.154;17.102;2022-10-16T02:55:35;99928.19;;;12.78
58909;BMP280;44690;48.154;17.102;2022-10-16T02:57:07;99926.19;;;12.78
58909;BMP280;44690;48.154;17.102;2022-10-16T02:58:39;99937.22;;;12.80
58909;BMP280;44690;48.154;17.102;2022-10-16T03:00:12;99932.50;;;12.81
58909;BMP280;44690;48.154;17.102;2022-10-16T03:01:44;99925.75;;;12.82
58909;BMP280;44690;48.154;17.102;2022-10-16T03:03:16;99927.19;;;12.83
58909;BMP280;44690;48.154;17.102;2022-10-16T03:04:48;99921.03;;;12.82
58909;BMP280;44690;48.154;17.102;2022-10-16T03:06:20;99923.22;;;12.84
58909;BMP280;44690;48.154;17.102;2022-10-16T03:07:52;99917.75;;;12.84
58909;BMP280;44690;48.154;17.102;2022-10-16T03:09:24;99924.66;;;12.85
58909;BMP280;44690;48.154;17.102;2022-10-16T03:10:56;99923.38;;;12.86
58909;BMP280;44690;48.154;17.102;2022-10-16T03:12:28;99925.50;;;12.87
58909;BMP280;44690;48.154;17.102;2022-10-16T03:14:00;99926.09;;;12.86
58909;BMP280;44690;48.154;17.102;2022-10-16T03:15:32;99925.50;;;12.87
58909;BMP280;44690;48.154;17.102;2022-10-16T03:17:04;99940.41;;;12.86
58909;BMP280;44690;48.154;17.102;2022-10-16T03:18:36;99941.13;;;12.87
58909;BMP280;44690;48.154;17.102;2022-10-16T03:20:08;99936.97;;;12.86
58909;BMP280;44690;48.154;17.102;2022-10-16T03:21:40;99942.28;;;12.84
58909;BMP280;44690;48.154;17.102;2022-10-16T03:23:12;99940.09;;;12.82
58909;BMP280;44690;48.154;17.102;2022-10-16T03:24:44;99937.22;;;12.80
58909;BMP280;44690;48.154;17.102;2022-10-16T03:26:15;99944.69;;;12.80
58909;BMP280;44690;48.154;17.102;2022-10-16T03:27:47;99946.00;;;12.79
58909;BMP280;44690;48.154;17.102;2022-10-16T03:29:19;99940.53;;;12.79
58909;BMP280;44690;48.154;17.102;2022-10-16T03:30:51;99941.81;;;12.78
58909;BMP280;44690;48.154;17.102;2022-10-16T03:32:23;99946.69;;;12.79
58909;BMP280;44690;48.154;17.102;2022-10-16T03:33:56;99952.53;;;12.76
58909;BMP280;44690;48.154;17.102;2022-10-16T03:35:28;99955.09;;;12.73
58909;BMP280;44690;48.154;17.102;2022-10-16T03:37:01;99959.13;;;12.73
58909;BMP280;44690;48.154;17.102;2022-10-16T03:38:33;99963.13;;;12.71
58909;BMP280;44690;48.154;17.102;2022-10-16T03:40:05;99963.69;;;12.70
58909;BMP280;44690;48.154;17.102;2022-10-16T03:41:37;99969.69;;;12.68
58909;BMP280;44690;48.154;17.102;2022-10-16T03:43:09;99968.09;;;12.65
58909;BMP280;44690;48.154;17.102;2022-10-16T03:44:41;99965.03;;;12.61
58909;BMP280;44690;48.154;17.102;2022-10-16T03:46:13;99968.22;;;12.58
58909;BMP280;44690;48.154;17.102;2022-10-16T03:47:45;99965.69;;;12.52
58909;BMP280;44690;48.154;17.102;2022-10-16T03:49:17;99968.66;;;12.47
58909;BMP280;44690;48.154;17.102;2022-10-16T03:50:48;99974.91;;;12.39
58909;BMP280;44690;48.154;17.102;2022-10-16T03:52:22;99978.59;;;12.34
58909;BMP280;44690;48.154;17.102;2022-10-16T03:53:53;99983.59;;;12.28
58909;BMP280;44690;48.154;17.102;2022-10-16T03:55:25;99972.22;;;12.22
58909;BMP280;44690;48.154;17.102;2022-10-16T03:56:57;99984.94;;;12.20
58909;BMP280;44690;48.154;17.102;2022-10-16T03:58:29;99977.19;;;12.16
58909;BMP280;44690;48.154;17.102;2022-10-16T04:00:01;99985.16;;;12.14
58909;BMP280;44690;48.154;17.102;2022-10-16T04:01:42;99989.88;;;12.13
58909;BMP280;44690;48.154;17.102;2022-10-16T04:03:14;99987.00;;;12.11
58909;BMP280;44690;48.154;17.102;2022-10-16T04:04:46;99987.53;;;12.10
58909;BMP280;44690;48.154;17.102;2022-10-16T04:06:18;99996.44;;;12.10
58909;BMP280;44690;48.154;17.102;2022-10-16T04:07:50;100001.88;;;12.10
58909;BMP280;44690;48.154;17.102;2022-10-16T04:09:22;100001.13;;;12.10
58909;BMP280;44690;48.154;17.102;2022-10-16T04:10:53;100003.31;;;12.11
58909;BMP280;44690;48.154;17.102;2022-10-16T04:12:26;99998.03;;;12.13
58909;BMP280;44690;48.154;17.102;2022-10-16T04:13:58;99999.50;;;12.15
58909;BMP280;44690;48.154;17.102;2022-10-16T04:15:30;99997.50;;;12.15
58909;BMP280;44690;48.154;17.102;2022-10-16T04:17:02;99996.22;;;12.16
58909;BMP280;44690;48.154;17.102;2022-10-16T04:18:34;99996.94;;;12.17
58909;BMP280;44690;48.154;17.102;2022-10-16T04:20:06;99996.34;;;12.18
58909;BMP280;44690;48.154;17.102;2022-10-16T04:21:38;99994.91;;;12.17
58909;BMP280;44690;48.154;17.102;2022-10-16T04:23:10;100008.69;;;12.19
58909;BMP280;44690;48.154;17.102;2022-10-16T04:24:42;100001.78;;;12.18
58909;BMP280;44690;48.154;17.102;2022-10-16T04:26:14;100006.69;;;12.20
58909;BMP280;44690;48.154;17.102;2022-10-16T04:27:46;99997.81;;;12.19
58909;BMP280;44690;48.154;17.102;2022-10-16T04:29:18;99998.53;;;12.20
58909;BMP280;44690;48.154;17.102;2022-10-16T04:30:50;99998.69;;;12.22
58909;BMP280;44690;48.154;17.102;2022-10-16T04:32:22;99994.53;;;12.21
58909;BMP280;44690;48.154;17.102;2022-10-16T04:33:54;99991.25;;;12.22
58909;BMP280;44690;48.154;17.102;2022-10-16T04:35:26;100008.28;;;12.23
58909;BMP280;44690;48.154;17.102;2022-10-16T04:36:58;100005.56;;;12.23
58909;BMP280;44690;48.154;17.102;2022-10-16T04:38:30;100006.31;;;12.23
58909;BMP280;44690;48.154;17.102;2022-10-16T04:40:02;100010.84;;;12.21
58909;BMP280;44690;48.154;17.102;2022-10-16T04:41:34;100013.59;;;12.21
58909;BMP280;44690;48.154;17.102;2022-10-16T04:43:06;99996.34;;;12.18
58909;BMP280;44690;48.154;17.102;2022-10-16T04:44:39;100005.09;;;12.17
58909;BMP280;44690;48.154;17.102;2022-10-16T04:46:10;100006.38;;;12.16
58909;BMP280;44690;48.154;17.102;2022-10-16T04:47:43;100002.03;;;12.12
58909;BMP280;44690;48.154;17.102;2022-10-16T04:49:14;99998.28;;;12.08
58909;BMP280;44690;48.154;17.102;2022-10-16T04:50:46;100002.81;;;12.05
58909;BMP280;44690;48.154;17.102;2022-10-16T04:52:25;100018.66;;;11.99
58909;BMP280;44690;48.154;17.102;2022-10-16T04:53:57;100018.34;;;11.95
58909;BMP280;44690;48.154;17.102;2022-10-16T04:55:29;100019.28;;;11.90
58909;BMP280;44690;48.154;17.102;2022-10-16T04:57:01;100012.09;;;11.85
58909;BMP280;44690;48.154;17.102;2022-10-16T04:58:33;100021.94;;;11.80
58909;BMP280;44690;48.154;17.102;2022-10-16T05:00:05;100024.81;;;11.75
58909;BMP280;44690;48.154;17.102;2022-10-16T05:01:37;100023.25;;;11.72
58909;BMP280;44690;48.154;17.102;2022-10-16T05:03:10;100021.44;;;11.67
58909;BMP280;44690;48.154;17.102;2022-10-16T05:04:42;100023.81;;;11.63
58909;BMP280;44690;48.154;17.102;2022-10-16T05:06:14;100018.78;;;11.59
58909;BMP280;44690;48.154;17.102;2022-10-16T05:07:46;100018.63;;;11.57
58909;BMP280;44690;48.154;17.102;2022-10-16T05:09:18;100023.91;;;11.55
58909;BMP280;44690;48.154;17.102;2022-10-16T05:10:50;100024.25;;;11.51
58909;BMP280;44690;48.154;17.102;2022-10-16T05:12:22;100024.66;;;11.48
58909;BMP280;44690;48.154;17.102;2022-10-16T05:13:53;100023.75;;;11.45
58909;BMP280;44690;48.154;17.102;2022-10-16T05:15:26;100027.19;;;11.46
58909;BMP280;44690;48.154;17.102;2022-10-16T05:16:59;100022.91;;;11.43
58909;BMP280;44690;48.154;17.102;2022-10-16T05:18:31;100027.75;;;11.44
58909;BMP280;44690;48.154;17.102;2022-10-16T05:20:03;100032.09;;;11.47
58909;BMP280;44690;48.154;17.102;2022-10-16T05:21:35;100028.66;;;11.47
58909;BMP280;44690;48.154;17.102;2022-10-16T05:23:07;100037.34;;;11.45
58909;BMP280;44690;48.154;17.102;2022-10-16T05:24:41;100035.19;;;11.44
58909;BMP280;44690;48.154;17.102;2022-10-16T05:26:13;100028.34;;;11.43
58909;BMP280;44690;48.154;17.102;2022-10-16T05:27:48;100035.19;;;11.44
58909;BMP280;44690;48.154;17.102;2022-10-16T05:29:20;100038.06;;;11.46
58909;BMP280;44690;48.154;17.102;2022-10-16T05:30:52;100045.69;;;11.47
58909;BMP280;44690;48.154;17.102;2022-10-16T05:32:24;100047.84;;;11.49
58909;BMP280;44690;48.154;17.102;2022-10-16T05:33:57;100047.44;;;11.52
58909;BMP280;44690;48.154;17.102;2022-10-16T05:35:29;100057.75;;;11.54
58909;BMP280;44690;48.154;17.102;2022-10-16T05:37:01;100045.81;;;11.57
58909;BMP280;44690;48.154;17.102;2022-10-16T05:38:34;100041.97;;;11.60
58909;BMP280;44690;48.154;17.102;2022-10-16T05:40:06;100049.00;;;11.63
58909;BMP280;44690;48.154;17.102;2022-10-16T05:41:38;100044.31;;;11.64
58909;BMP280;44690;48.154;17.102;2022-10-16T05:43:10;100051.91;;;11.65
58909;BMP280;44690;48.154;17.102;2022-10-16T05:44:42;100052.63;;;11.66
58909;BMP280;44690;48.154;17.102;2022-10-16T05:46:14;100059.69;;;11.69
58909;BMP280;44690;48.154;17.102;2022-10-16T05:47:46;100055.88;;;11.72
58909;BMP280;44690;48.154;17.102;2022-10-16T05:49:18;100060.03;;;11.73
58909;BMP280;44690;48.154;17.102;2022-10-16T05:51:04;100061.59;;;11.76
58909;BMP280;44690;48.154;17.102;2022-10-16T05:52:36;100071.41;;;11.79
58909;BMP280;44690;48.154;17.102;2022-10-16T05:54:08;100066.84;;;11.81
58909;BMP280;44690;48.154;17.102;2022-10-16T05:55:40;100077.50;;;11.87
58909;BMP280;44690;48.154;17.102;2022-10-16T05:57:12;100072.94;;;11.90
58909;BMP280;44690;48.154;17.102;2022-10-16T05:58:44;100076.56;;;11.92
58909;BMP280;44690;48.154;17.102;2022-10-16T06:00:16;100076.88;;;11.96
58909;BMP280;44690;48.154;17.102;2022-10-16T06:01:48;100083.16;;;12.06
58909;BMP280;44690;48.154;17.102;2022-10-16T06:03:20;100081.34;;;12.09
58909;BMP280;44690;48.154;17.102;2022-10-16T06:04:52;100088.00;;;12.16
58909;BMP280;44690;48.154;17.102;2022-10-16T06:06:27;100094.25;;;12.26
58909;BMP280;44690;48.154;17.102;2022-10-16T06:07:59;100093.50;;;12.50
58909;BMP280;44690;48.154;17.102;2022-10-16T06:09:31;100098.06;;;12.82
58909;BMP280;44690;48.154;17.102;2022-10-16T06:11:04;100096.75;;;13.18
58909;BMP280;44690;48.154;17.102;2022-10-16T06:12:36;100104.69;;;13.50
58909;BMP280;44690;48.154;17.102;2022-10-16T06:14:08;100100.38;;;13.84
58909;BMP280;44690;48.154;17.102;2022-10-16T06:15:41;100103.91;;;14.23
58909;BMP280;44690;48.154;17.102;2022-10-16T06:17:16;100098.38;;;14.60
58909;BMP280;44690;48.154;17.102;2022-10-16T06:18:47;100098.91;;;14.87
58909;BMP280;44690;48.154;17.102;2022-10-16T06:20:19;100103.94;;;15.20
58909;BMP280;44690;48.154;17.102;2022-10-16T06:21:51;100110.31;;;15.53
58909;BMP280;44690;48.154;17.102;2022-10-16T06:23:23;100112.75;;;15.80
58909;BMP280;44690;48.154;17.102;2022-10-16T06:24:56;100107.47;;;16.04
58909;BMP280;44690;48.154;17.102;2022-10-16T06:26:28;100113.25;;;16.19
58909;BMP280;44690;48.154;17.102;2022-10-16T06:28:00;100108.59;;;16.31
58909;BMP280;44690;48.154;17.102;2022-10-16T06:29:32;100104.31;;;16.40
58909;BMP280;44690;48.154;17.102;2022-10-16T06:31:04;100105.63;;;16.18
58909;BMP280;44690;48.154;17.102;2022-10-16T06:32:39;100107.72;;;16.08
58909;BMP280;44690;48.154;17.102;2022-10-16T06:34:11;100112.25;;;16.24
58909;BMP280;44690;48.154;17.102;2022-10-16T06:35:43;100111.81;;;16.61
58909;BMP280;44690;48.154;17.102;2022-10-16T06:37:15;100124.09;;;16.93
58909;BMP280;44690;48.154;17.102;2022-10-16T06:38:47;100125.56;;;17.29
58909;BMP280;44690;48.154;17.102;2022-10-16T06:40:18;100121.31;;;17.49
58909;BMP280;44690;48.154;17.102;2022-10-16T06:41:50;100129.16;;;17.55
58909;BMP280;44690;48.154;17.102;2022-10-16T06:43:22;100130.56;;;17.56
58909;BMP280;44690;48.154;17.102;2022-10-16T06:44:54;100139.66;;;17.59
58909;BMP280;44690;48.154;17.102;2022-10-16T06:46:26;100138.22;;;17.34
58909;BMP280;44690;48.154;17.102;2022-10-16T06:47:58;100139.88;;;16.71
58909;BMP280;44690;48.154;17.102;2022-10-16T06:49:30;100127.88;;;16.12
58909;BMP280;44690;48.154;17.102;2022-10-16T06:51:06;100138.28;;;15.83
58909;BMP280;44690;48.154;17.102;2022-10-16T06:52:39;100141.31;;;15.77
58909;BMP280;44690;48.154;17.102;2022-10-16T06:54:11;100140.56;;;15.86
58909;BMP280;44690;48.154;17.102;2022-10-16T06:55:43;100140.59;;;16.08
58909;BMP280;44690;48.154;17.102;2022-10-16T06:57:15;100145.50;;;16.30
58909;BMP280;44690;48.154;17.102;2022-10-16T06:58:47;100147.44;;;16.40
58909;BMP280;44690;48.154;17.102;2022-10-16T07:00:20;100152.09;;;16.37
58909;BMP280;44690;48.154;17.102;2022-10-16T07:01:52;100149.34;;;16.37
58909;BMP280;44690;48.154;17.102;2022-10-16T07:03:24;100158.28;;;16.38
58909;BMP280;44690;48.154;17.102;2022-10-16T07:04:55;100151.47;;;16.39
58909;BMP280;44690;48.154;17.102;2022-10-16T07:06:30;100164.34;;;16.36
58909;BMP280;44690;48.154;17.102;2022-10-16T07:08:02;100160.50;;;16.51
58909;BMP280;44690;48.154;17.102;2022-10-16T07:09:36;100163.06;;;16.70
58909;BMP280;44690;48.154;17.102;2022-10-16T07:11:09;100166.97;;;16.88
58909;BMP280;44690;48.154;17.102;2022-10-16T07:12:42;100170.38;;;17.10
58909;BMP280;44690;48.154;17.102;2022-10-16T07:14:17;100175.06;;;17.19
58909;BMP280;44690;48.154;17.102;2022-10-16T07:15:49;100168.25;;;17.20
58909;BMP280;44690;48.154;17.102;2022-10-16T07:17:21;100178.53;;;17.20
58909;BMP280;44690;48.154;17.102;2022-10-16T07:18:54;100174.19;;;17.17
58909;BMP280;44690;48.154;17.102;2022-10-16T07:20:29;100168.22;;;17.09
58909;BMP280;44690;48.154;17.102;2022-10-16T07:22:01;100170.84;;;17.07
58909;BMP280;44690;48.154;17.102;2022-10-16T07:23:34;100177.13;;;16.98
58909;BMP280;44690;48.154;17.102;2022-10-16T07:25:06;100175.69;;;16.97
58909;BMP280;44690;48.154;17.102;2022-10-16T07:26:39;100173.44;;;16.93
58909;BMP280;44690;48.154;17.102;2022-10-16T07:28:11;100171.84;;;16.90
58909;BMP280;44690;48.154;17.102;2022-10-16T07:29:43;100175.94;;;17.01
58909;BMP280;44690;48.154;17.102;2022-10-16T07:31:15;100167.03;;;17.12
58909;BMP280;44690;48.154;17.102;2022-10-16T07:32:47;100177.41;;;17.13
58909;BMP280;44690;48.154;17.102;2022-10-16T07:34:19;100180.91;;;17.14
58909;BMP280;44690;48.154;17.102;2022-10-16T07:35:54;100182.88;;;17.02
58909;BMP280;44690;48.154;17.102;2022-10-16T07:37:26;100174.16;;;16.93
58909;BMP280;44690;48.154;17.102;2022-10-16T07:38:58;100179.72;;;16.96
58909;BMP280;44690;48.154;17.102;2022-10-16T07:40:31;100178.56;;;16.99
58909;BMP280;44690;48.154;17.102;2022-10-16T07:42:03;100178.19;;;16.92
58909;BMP280;44690;48.154;17.102;2022-10-16T07:43:35;100184.00;;;16.87
58909;BMP280;44690;48.154;17.102;2022-10-16T07:45:07;100178.91;;;16.93
58909;BMP280;44690;48.154;17.102;2022-10-16T07:46:38;100179.00;;;16.95
58909;BMP280;44690;48.154;17.102;2022-10-16T07:48:10;100174.41;;;17.09
58909;BMP280;44690;48.154;17.102;2022-10-16T07:49:42;100184.50;;;17.28
58909;BMP280;44690;48.154;17.102;2022-10-16T07:51:16;100176.31;;;17.40
58909;BMP280;44690;48.154;17.102;2022-10-16T07:52:48;100184.13;;;17.34
58909;BMP280;44690;48.154;17.102;2022-10-16T07:54:20;100182.09;;;17.22
58909;BMP280;44690;48.154;17.102;2022-10-16T07:55:52;100186.47;;;17.16
58909;BMP280;44690;48.154;17.102;2022-10-16T07:57:24;100185.31;;;17.19
58909;BMP280;44690;48.154;17.102;2022-10-16T07:58:56;100183.78;;;17.28
58909;BMP280;44690;48.154;17.102;2022-10-16T08:00:28;100197.03;;;17.31
58909;BMP280;44690;48.154;17.102;2022-10-16T08:02:00;100194.69;;;17.16
58909;BMP280;44690;48.154;17.102;2022-10-16T08:03:32;100198.59;;;17.01
58909;BMP280;44690;48.154;17.102;2022-10-16T08:05:04;100196.59;;;17.02
58909;BMP280;44690;48.154;17.102;2022-10-16T08:06:37;100190.50;;;17.03
58909;BMP280;44690;48.154;17.102;2022-10-16T08:08:13;100185.38;;;17.09
58909;BMP280;44690;48.154;17.102;2022-10-16T08:09:48;100180.91;;;17.14
58909;BMP280;44690;48.154;17.102;2022-10-16T08:11:20;100186.13;;;17.10
58909;BMP280;44690;48.154;17.102;2022-10-16T08:12:52;100187.19;;;17.16
58909;BMP280;44690;48.154;17.102;2022-10-16T08:14:24;100186.47;;;17.16
58909;BMP280;44690;48.154;17.102;2022-10-16T08:15:56;100191.38;;;17.17
58909;BMP280;44690;48.154;17.102;2022-10-16T08:17:28;100196.28;;;17.19
58909;BMP280;44690;48.154;17.102;2022-10-16T08:19:00;100188.66;;;17.29
58909;BMP280;44690;48.154;17.102;2022-10-16T08:20:32;100187.28;;;17.40
58909;BMP280;44690;48.154;17.102;2022-10-16T08:22:04;100188.19;;;17.33
58909;BMP280;44690;48.154;17.102;2022-10-16T08:23:36;100186.06;;;17.31
58909;BMP280;44690;48.154;17.102;2022-10-16T08:25:08;100191.53;;;17.31
58909;BMP280;44690;48.154;17.102;2022-10-16T08:26:40;100195.72;;;17.32
58909;BMP280;44690;48.154;17.102;2022-10-16T08:28:12;100196.78;;;17.39
58909;BMP280;44690;48.154;17.102;2022-10-16T08:29:44;100196.47;;;17.44
58909;BMP280;44690;48.154;17.102;2022-10-16T08:31:16;100196.00;;;17.48
58909;BMP280;44690;48.154;17.102;2022-10-16T08:32:54;100201.84;;;17.54
58909;BMP280;44690;48.154;17.102;2022-10-16T08:34:26;100201.69;;;17.52
58909;BMP280;44690;48.154;17.102;2022-10-16T08:35:58;100204.53;;;17.42
58909;BMP280;44690;48.154;17.102;2022-10-16T08:37:31;100214.53;;;17.26
58909;BMP280;44690;48.154;17.102;2022-10-16T08:39:03;100219.34;;;17.04
58909;BMP280;44690;48.154;17.102;2022-10-16T08:40:35;100213.31;;;16.84
58909;BMP280;44690;48.154;17.102;2022-10-16T08:49:18;100219.28;;;16.07
58909;BMP280;44690;48.154;17.102;2022-10-16T08:50:50;100215.38;;;16.00
58909;BMP280;44690;48.154;17.102;2022-10-16T08:52:23;100221.38;;;15.87
58909;BMP280;44690;48.154;17.102;2022-10-16T08:54:12;100229.16;;;15.81
58909;BMP280;44690;48.154;17.102;2022-10-16T08:55:51;100225.88;;;15.73
58909;BMP280;44690;48.154;17.102;2022-10-16T08:57:24;100222.28;;;15.70
58909;BMP280;44690;48.154;17.102;2022-10-16T08:58:58;100220.97;;;15.72
58909;BMP280;44690;48.154;17.102;2022-10-16T09:00:33;100218.94;;;15.82
58909;BMP280;44690;48.154;17.102;2022-10-16T09:08:37;100218.78;;;16.11
58909;BMP280;44690;48.154;17.102;2022-10-16T09:10:15;100218.22;;;16.12
58909;BMP280;44690;48.154;17.102;2022-10-16T09:11:52;100216.88;;;16.23
58909;BMP280;44690;48.154;17.102;2022-10-16T09:13:28;100214.81;;;16.33
58909;BMP280;44690;48.154;17.102;2022-10-16T09:15:12;100219.97;;;16.39
58909;BMP280;44690;48.154;17.102;2022-10-16T09:16:46;100213.84;;;16.50
58909;BMP280;44690;48.154;17.102;2022-10-16T09:21:41;100223.81;;;16.67